sensor_id;sensor_type;location;lat;lon;timestamp;P1;durP1;ratioP1;P2;durP2;ratioP2
65230;SDS011;51813;40.666;16.602;2023-06-01T00:01:32;8.88;;;6.60;;
65230;SDS011;51813;40.666;16.602;2023-06-01T00:03:58;7.75;;;5.68;;
65230;SDS011;51813;40.666;16.602;2023-06-01T00:06:25;7.43;;;5.53;;
65230;SDS011;51813;40.666;16.602;2023-06-01T00:08:58;7.60;;;5.55;;
65230;SDS011;51813;40.666;16.602;2023-06-01T00:11:24;7.38;;;5.68;;
65230;SDS011;51813;40.666;16.602;2023-06-01T00:13:51;6.97;;;5.35;;
65230;SDS011;51813;40.666;16.602;2023-06-01T00:16:17;7.05;;;5.50;;
65230;SDS011;51813;40.666;16.602;2023-06-01T00:18:43;7.80;;;5.47;;
65230;SDS011;51813;40.666;16.602;2023-06-01T00:21:09;7.93;;;5.97;;
65230;SDS011;51813;40.666;16.602;2023-06-01T00:23:35;8.30;;;5.38;;
65230;SDS011;51813;40.666;16.602;2023-06-01T00:26:01;6.68;;;5.30;;
65230;SDS011;51813;40.666;16.602;2023-06-01T00:28:27;6.72;;;5.22;;
65230;SDS011;51813;40.666;16.602;2023-06-01T00:30:53;6.55;;;5.18;;
65230;SDS011;51813;40.666;16.602;2023-06-01T00:33:20;6.32;;;5.28;;
65230;SDS011;51813;40.666;16.602;2023-06-01T00:35:46;6.45;;;4.95;;
65230;SDS011;51813;40.666;16.602;2023-06-01T00:38:11;7.53;;;5.43;;
65230;SDS011;51813;40.666;16.602;2023-06-01T00:40:37;6.32;;;4.68;;
65230;SDS011;51813;40.666;16.602;2023-06-01T00:43:03;7.20;;;5.40;;
65230;SDS011;51813;40.666;16.602;2023-06-01T00:45:29;5.63;;;4.63;;
65230;SDS011;51813;40.666;16.602;2023-06-01T00:47:55;6.13;;;4.68;;
65230;SDS011;51813;40.666;16.602;2023-06-01T00:50:21;7.35;;;5.32;;
65230;SDS011;51813;40.666;16.602;2023-06-01T00:52:48;7.05;;;5.03;;
65230;SDS011;51813;40.666;16.602;2023-06-01T00:55:15;5.88;;;4.53;;
65230;SDS011;51813;40.666;16.602;2023-06-01T00:57:44;5.75;;;4.55;;
65230;SDS011;51813;40.666;16.602;2023-06-01T01:00:10;6.35;;;4.78;;
65230;SDS011;51813;40.666;16.602;2023-06-01T01:02:37;6.15;;;4.68;;
65230;SDS011;51813;40.666;16.602;2023-06-01T01:05:10;6.40;;;4.80;;
65230;SDS011;51813;40.666;16.602;2023-06-01T01:10:31;6.72;;;5.28;;
65230;SDS011;51813;40.666;16.602;2023-06-01T01:15:44;7.10;;;4.90;;
65230;SDS011;51813;40.666;16.602;2023-06-01T01:21:06;6.35;;;4.82;;
65230;SDS011;51813;40.666;16.602;2023-06-01T01:29:28;7.93;;;5.18;;
65230;SDS011;51813;40.666;16.602;2023-06-01T01:31:57;7.45;;;5.55;;
65230;SDS011;51813;40.666;16.602;2023-06-01T01:34:25;7.30;;;5.25;;
65230;SDS011;51813;40.666;16.602;2023-06-01T01:36:54;6.45;;;4.95;;
65230;SDS011;51813;40.666;16.602;2023-06-01T01:39:20;6.72;;;4.80;;
65230;SDS011;51813;40.666;16.602;2023-06-01T01:41:45;6.90;;;5.07;;
65230;SDS011;51813;40.666;16.602;2023-06-01T01:44:11;6.95;;;5.13;;
65230;SDS011;51813;40.666;16.602;2023-06-01T01:49:48;7.00;;;5.00;;
65230;SDS011;51813;40.666;16.602;2023-06-01T01:52:20;7.38;;;5.18;;
65230;SDS011;51813;40.666;16.602;2023-06-01T01:54:50;8.93;;;6.30;;
65230;SDS011;51813;40.666;16.602;2023-06-01T01:57:17;8.52;;;5.80;;
65230;SDS011;51813;40.666;16.602;2023-06-01T01:59:45;8.88;;;5.53;;
65230;SDS011;51813;40.666;16.602;2023-06-01T02:02:11;7.25;;;5.25;;
65230;SDS011;51813;40.666;16.602;2023-06-01T02:04:41;8.85;;;6.40;;
65230;SDS011;51813;40.666;16.602;2023-06-01T02:07:08;11.07;;;6.30;;
65230;SDS011;51813;40.666;16.602;2023-06-01T02:09:34;8.23;;;5.30;;
65230;SDS011;51813;40.666;16.602;2023-06-01T02:12:00;9.18;;;6.43;;
65230;SDS011;51813;40.666;16.602;2023-06-01T02:14:27;12.23;;;7.60;;
65230;SDS011;51813;40.666;16.602;2023-06-01T02:16:53;9.15;;;6.30;;
65230;SDS011;51813;40.666;16.602;2023-06-01T02:19:19;11.15;;;6.95;;
65230;SDS011;51813;40.666;16.602;2023-06-01T02:21:45;11.80;;;7.18;;
65230;SDS011;51813;40.666;16.602;2023-06-01T02:24:11;9.48;;;6.68;;
65230;SDS011;51813;40.666;16.602;2023-06-01T02:26:37;8.57;;;6.05;;
65230;SDS011;51813;40.666;16.602;2023-06-01T02:29:03;9.10;;;6.75;;
65230;SDS011;51813;40.666;16.602;2023-06-01T02:31:30;10.85;;;6.95;;
65230;SDS011;51813;40.666;16.602;2023-06-01T02:33:57;10.00;;;6.88;;
65230;SDS011;51813;40.666;16.602;2023-06-01T02:36:23;11.32;;;7.10;;
65230;SDS011;51813;40.666;16.602;2023-06-01T02:38:50;10.20;;;6.43;;
65230;SDS011;51813;40.666;16.602;2023-06-01T02:41:16;10.02;;;6.70;;
65230;SDS011;51813;40.666;16.602;2023-06-01T02:43:41;8.95;;;6.13;;
65230;SDS011;51813;40.666;16.602;2023-06-01T02:46:07;10.65;;;6.80;;
65230;SDS011;51813;40.666;16.602;2023-06-01T02:48:33;10.80;;;7.75;;
65230;SDS011;51813;40.666;16.602;2023-06-01T02:50:58;12.05;;;8.13;;
65230;SDS011;51813;40.666;16.602;2023-06-01T02:53:25;9.15;;;6.28;;
65230;SDS011;51813;40.666;16.602;2023-06-01T02:55:53;11.85;;;7.18;;
65230;SDS011;51813;40.666;16.602;2023-06-01T02:58:19;10.70;;;7.50;;
65230;SDS011;51813;40.666;16.602;2023-06-01T03:00:45;10.55;;;7.28;;
65230;SDS011;51813;40.666;16.602;2023-06-01T03:03:12;10.68;;;7.13;;
65230;SDS011;51813;40.666;16.602;2023-06-01T03:05:37;10.18;;;6.25;;
65230;SDS011;51813;40.666;16.602;2023-06-01T03:08:04;10.10;;;6.85;;
65230;SDS011;51813;40.666;16.602;2023-06-01T03:10:31;12.30;;;6.80;;
65230;SDS011;51813;40.666;16.602;2023-06-01T03:12:57;12.73;;;7.57;;
65230;SDS011;51813;40.666;16.602;2023-06-01T03:15:23;11.52;;;7.25;;
65230;SDS011;51813;40.666;16.602;2023-06-01T03:17:48;11.90;;;7.40;;
65230;SDS011;51813;40.666;16.602;2023-06-01T03:20:14;11.57;;;7.78;;
65230;SDS011;51813;40.666;16.602;2023-06-01T03:22:43;12.13;;;7.53;;
65230;SDS011;51813;40.666;16.602;2023-06-01T03:25:10;10.65;;;6.85;;
65230;SDS011;51813;40.666;16.602;2023-06-01T03:27:38;11.60;;;7.25;;
65230;SDS011;51813;40.666;16.602;2023-06-01T03:30:04;10.10;;;6.65;;
65230;SDS011;51813;40.666;16.602;2023-06-01T03:32:35;11.43;;;7.55;;
65230;SDS011;51813;40.666;16.602;2023-06-01T03:35:02;10.70;;;7.00;;
65230;SDS011;51813;40.666;16.602;2023-06-01T03:37:29;9.80;;;6.63;;
65230;SDS011;51813;40.666;16.602;2023-06-01T03:39:54;9.07;;;6.32;;
65230;SDS011;51813;40.666;16.602;2023-06-01T03:42:20;9.15;;;6.35;;
65230;SDS011;51813;40.666;16.602;2023-06-01T03:44:46;10.52;;;6.78;;
65230;SDS011;51813;40.666;16.602;2023-06-01T03:47:12;9.13;;;6.25;;
65230;SDS011;51813;40.666;16.602;2023-06-01T03:49:39;8.80;;;6.05;;
65230;SDS011;51813;40.666;16.602;2023-06-01T03:52:05;9.77;;;6.32;;
65230;SDS011;51813;40.666;16.602;2023-06-01T03:54:31;9.10;;;6.40;;
65230;SDS011;51813;40.666;16.602;2023-06-01T03:56:56;7.63;;;5.50;;
65230;SDS011;51813;40.666;16.602;2023-06-01T03:59:22;8.13;;;5.82;;
65230;SDS011;51813;40.666;16.602;2023-06-01T04:01:48;8.05;;;5.63;;
65230;SDS011;51813;40.666;16.602;2023-06-01T04:04:14;8.52;;;6.07;;
65230;SDS011;51813;40.666;16.602;2023-06-01T04:06:42;8.60;;;5.78;;
65230;SDS011;51813;40.666;16.602;2023-06-01T04:09:10;7.32;;;5.63;;
65230;SDS011;51813;40.666;16.602;2023-06-01T04:11:39;7.75;;;5.90;;
65230;SDS011;51813;40.666;16.602;2023-06-01T04:14:05;7.90;;;5.47;;
65230;SDS011;51813;40.666;16.602;2023-06-01T04:16:30;7.57;;;5.53;;
65230;SDS011;51813;40.666;16.602;2023-06-01T04:18:56;7.60;;;5.63;;
65230;SDS011;51813;40.666;16.602;2023-06-01T04:21:22;6.95;;;5.13;;
65230;SDS011;51813;40.666;16.602;2023-06-01T04:23:48;6.95;;;5.30;;
65230;SDS011;51813;40.666;16.602;2023-06-01T04:26:15;7.43;;;5.18;;
65230;SDS011;51813;40.666;16.602;2023-06-01T04:28:42;6.95;;;4.85;;
65230;SDS011;51813;40.666;16.602;2023-06-01T04:31:14;7.15;;;5.18;;
65230;SDS011;51813;40.666;16.602;2023-06-01T04:33:44;6.80;;;4.88;;
65230;SDS011;51813;40.666;16.602;2023-06-01T04:36:13;7.05;;;5.20;;
65230;SDS011;51813;40.666;16.602;2023-06-01T04:38:49;6.82;;;5.47;;
65230;SDS011;51813;40.666;16.602;2023-06-01T04:41:22;6.32;;;5.03;;
65230;SDS011;51813;40.666;16.602;2023-06-01T04:43:49;8.25;;;5.50;;
65230;SDS011;51813;40.666;16.602;2023-06-01T04:46:21;8.48;;;6.30;;
65230;SDS011;51813;40.666;16.602;2023-06-01T04:48:50;7.80;;;5.68;;
65230;SDS011;51813;40.666;16.602;2023-06-01T04:51:16;8.60;;;6.38;;
65230;SDS011;51813;40.666;16.602;2023-06-01T04:53:45;6.90;;;5.10;;
65230;SDS011;51813;40.666;16.602;2023-06-01T04:56:15;7.85;;;5.40;;
65230;SDS011;51813;40.666;16.602;2023-06-01T04:58:45;8.00;;;5.25;;
65230;SDS011;51813;40.666;16.602;2023-06-01T05:01:14;7.43;;;5.28;;
65230;SDS011;51813;40.666;16.602;2023-06-01T05:03:43;9.82;;;6.15;;
65230;SDS011;51813;40.666;16.602;2023-06-01T05:06:12;8.15;;;5.43;;
65230;SDS011;51813;40.666;16.602;2023-06-01T05:08:39;7.10;;;5.30;;
65230;SDS011;51813;40.666;16.602;2023-06-01T05:11:06;8.95;;;5.90;;
65230;SDS011;51813;40.666;16.602;2023-06-01T05:13:36;6.80;;;5.13;;
65230;SDS011;51813;40.666;16.602;2023-06-01T05:16:03;8.85;;;6.10;;
65230;SDS011;51813;40.666;16.602;2023-06-01T05:18:29;8.15;;;6.18;;
65230;SDS011;51813;40.666;16.602;2023-06-01T05:20:55;8.50;;;5.60;;
65230;SDS011;51813;40.666;16.602;2023-06-01T05:23:21;8.13;;;5.38;;
65230;SDS011;51813;40.666;16.602;2023-06-01T05:25:46;9.35;;;6.38;;
65230;SDS011;51813;40.666;16.602;2023-06-01T05:28:12;7.22;;;5.07;;
65230;SDS011;51813;40.666;16.602;2023-06-01T05:30:38;10.50;;;6.72;;
65230;SDS011;51813;40.666;16.602;2023-06-01T05:33:03;7.20;;;5.63;;
65230;SDS011;51813;40.666;16.602;2023-06-01T05:35:29;6.82;;;5.20;;
65230;SDS011;51813;40.666;16.602;2023-06-01T05:37:55;6.80;;;5.30;;
65230;SDS011;51813;40.666;16.602;2023-06-01T05:40:21;6.80;;;5.15;;
65230;SDS011;51813;40.666;16.602;2023-06-01T05:42:46;7.05;;;5.20;;
65230;SDS011;51813;40.666;16.602;2023-06-01T05:45:12;7.47;;;5.13;;
65230;SDS011;51813;40.666;16.602;2023-06-01T05:47:38;5.93;;;5.10;;
65230;SDS011;51813;40.666;16.602;2023-06-01T05:50:04;6.88;;;5.00;;
65230;SDS011;51813;40.666;16.602;2023-06-01T05:52:30;9.50;;;5.10;;
65230;SDS011;51813;40.666;16.602;2023-06-01T05:54:56;6.32;;;4.88;;
65230;SDS011;51813;40.666;16.602;2023-06-01T05:57:22;9.00;;;5.68;;
65230;SDS011;51813;40.666;16.602;2023-06-01T05:59:48;8.63;;;5.72;;
65230;SDS011;51813;40.666;16.602;2023-06-01T06:02:14;7.32;;;5.10;;
65230;SDS011;51813;40.666;16.602;2023-06-01T06:04:40;7.57;;;5.18;;
65230;SDS011;51813;40.666;16.602;2023-06-01T06:07:05;6.95;;;4.95;;
65230;SDS011;51813;40.666;16.602;2023-06-01T06:09:31;6.10;;;4.93;;
65230;SDS011;51813;40.666;16.602;2023-06-01T06:11:58;7.30;;;4.70;;
65230;SDS011;51813;40.666;16.602;2023-06-01T06:14:24;8.20;;;5.68;;
65230;SDS011;51813;40.666;16.602;2023-06-01T06:16:50;7.68;;;5.85;;
65230;SDS011;51813;40.666;16.602;2023-06-01T06:19:16;5.88;;;4.45;;
65230;SDS011;51813;40.666;16.602;2023-06-01T06:21:41;5.65;;;4.32;;
65230;SDS011;51813;40.666;16.602;2023-06-01T06:24:08;6.63;;;4.82;;
65230;SDS011;51813;40.666;16.602;2023-06-01T06:26:33;9.07;;;5.90;;
65230;SDS011;51813;40.666;16.602;2023-06-01T06:28:59;7.28;;;5.43;;
65230;SDS011;51813;40.666;16.602;2023-06-01T06:31:25;7.03;;;5.07;;
65230;SDS011;51813;40.666;16.602;2023-06-01T06:33:51;6.78;;;4.90;;
65230;SDS011;51813;40.666;16.602;2023-06-01T06:36:17;8.43;;;5.15;;
65230;SDS011;51813;40.666;16.602;2023-06-01T06:38:43;6.40;;;4.57;;
65230;SDS011;51813;40.666;16.602;2023-06-01T06:41:10;7.30;;;5.28;;
65230;SDS011;51813;40.666;16.602;2023-06-01T06:43:36;7.15;;;5.32;;
65230;SDS011;51813;40.666;16.602;2023-06-01T06:46:02;7.93;;;5.25;;
65230;SDS011;51813;40.666;16.602;2023-06-01T06:48:28;8.00;;;5.72;;
65230;SDS011;51813;40.666;16.602;2023-06-01T06:50:54;6.53;;;4.80;;
65230;SDS011;51813;40.666;16.602;2023-06-01T06:53:20;6.40;;;4.90;;
65230;SDS011;51813;40.666;16.602;2023-06-01T06:55:46;7.32;;;5.10;;
65230;SDS011;51813;40.666;16.602;2023-06-01T06:58:12;10.82;;;5.80;;
65230;SDS011;51813;40.666;16.602;2023-06-01T07:00:39;9.20;;;6.60;;
65230;SDS011;51813;40.666;16.602;2023-06-01T07:03:06;9.45;;;6.05;;
65230;SDS011;51813;40.666;16.602;2023-06-01T07:05:32;9.25;;;6.30;;
65230;SDS011;51813;40.666;16.602;2023-06-01T07:07:58;9.27;;;6.88;;
65230;SDS011;51813;40.666;16.602;2023-06-01T07:10:24;9.35;;;6.55;;
65230;SDS011;51813;40.666;16.602;2023-06-01T07:12:53;8.77;;;6.20;;
65230;SDS011;51813;40.666;16.602;2023-06-01T07:15:18;8.90;;;6.82;;
65230;SDS011;51813;40.666;16.602;2023-06-01T07:17:44;8.52;;;6.07;;
65230;SDS011;51813;40.666;16.602;2023-06-01T07:20:10;9.63;;;6.88;;
65230;SDS011;51813;40.666;16.602;2023-06-01T07:22:36;10.25;;;6.85;;
65230;SDS011;51813;40.666;16.602;2023-06-01T07:25:05;10.43;;;7.13;;
65230;SDS011;51813;40.666;16.602;2023-06-01T07:27:32;10.57;;;6.93;;
65230;SDS011;51813;40.666;16.602;2023-06-01T07:30:01;11.50;;;7.43;;
65230;SDS011;51813;40.666;16.602;2023-06-01T07:32:28;9.98;;;6.80;;
65230;SDS011;51813;40.666;16.602;2023-06-01T07:34:53;9.38;;;6.65;;
65230;SDS011;51813;40.666;16.602;2023-06-01T07:37:23;10.23;;;7.18;;
65230;SDS011;51813;40.666;16.602;2023-06-01T07:39:51;11.98;;;7.45;;
65230;SDS011;51813;40.666;16.602;2023-06-01T07:42:17;9.30;;;6.75;;
65230;SDS011;51813;40.666;16.602;2023-06-01T07:44:43;10.40;;;7.07;;
65230;SDS011;51813;40.666;16.602;2023-06-01T07:47:10;9.90;;;6.45;;
65230;SDS011;51813;40.666;16.602;2023-06-01T07:49:36;8.80;;;6.45;;
65230;SDS011;51813;40.666;16.602;2023-06-01T07:52:02;9.52;;;6.22;;
65230;SDS011;51813;40.666;16.602;2023-06-01T07:54:29;8.80;;;6.25;;
65230;SDS011;51813;40.666;16.602;2023-06-01T07:56:56;10.82;;;6.22;;
65230;SDS011;51813;40.666;16.602;2023-06-01T07:59:22;9.65;;;6.15;;
65230;SDS011;51813;40.666;16.602;2023-06-01T08:01:51;8.80;;;6.20;;
65230;SDS011;51813;40.666;16.602;2023-06-01T08:04:17;10.13;;;6.68;;
65230;SDS011;51813;40.666;16.602;2023-06-01T08:06:47;9.73;;;6.47;;
65230;SDS011;51813;40.666;16.602;2023-06-01T08:09:13;9.45;;;5.75;;
65230;SDS011;51813;40.666;16.602;2023-06-01T08:11:38;9.10;;;6.03;;
65230;SDS011;51813;40.666;16.602;2023-06-01T08:14:04;8.52;;;5.90;;
65230;SDS011;51813;40.666;16.602;2023-06-01T08:16:32;8.38;;;5.65;;
65230;SDS011;51813;40.666;16.602;2023-06-01T08:18:58;8.98;;;6.05;;
65230;SDS011;51813;40.666;16.602;2023-06-01T08:21:24;7.65;;;5.63;;
65230;SDS011;51813;40.666;16.602;2023-06-01T08:23:52;7.45;;;5.93;;
65230;SDS011;51813;40.666;16.602;2023-06-01T08:26:19;10.05;;;5.85;;
65230;SDS011;51813;40.666;16.602;2023-06-01T08:28:46;8.88;;;5.47;;
65230;SDS011;51813;40.666;16.602;2023-06-01T08:31:17;6.90;;;5.38;;
65230;SDS011;51813;40.666;16.602;2023-06-01T08:33:47;7.80;;;5.55;;
65230;SDS011;51813;40.666;16.602;2023-06-01T08:36:14;9.00;;;5.70;;
65230;SDS011;51813;40.666;16.602;2023-06-01T08:38:40;7.85;;;5.53;;
65230;SDS011;51813;40.666;16.602;2023-06-01T08:44:05;8.80;;;5.57;;
65230;SDS011;51813;40.666;16.602;2023-06-01T08:46:35;7.32;;;5.07;;
65230;SDS011;51813;40.666;16.602;2023-06-01T08:49:01;7.10;;;5.30;;
65230;SDS011;51813;40.666;16.602;2023-06-01T08:51:27;7.40;;;5.07;;
65230;SDS011;51813;40.666;16.602;2023-06-01T08:53:59;6.60;;;5.18;;
65230;SDS011;51813;40.666;16.602;2023-06-01T08:56:27;6.93;;;5.18;;
65230;SDS011;51813;40.666;16.602;2023-06-01T08:58:53;6.15;;;4.97;;
65230;SDS011;51813;40.666;16.602;2023-06-01T09:01:20;7.38;;;5.40;;
65230;SDS011;51813;40.666;16.602;2023-06-01T09:03:49;7.57;;;5.32;;
65230;SDS011;51813;40.666;16.602;2023-06-01T09:06:17;7.18;;;5.00;;
65230;SDS011;51813;40.666;16.602;2023-06-01T09:08:46;8.40;;;5.35;;
65230;SDS011;51813;40.666;16.602;2023-06-01T09:11:12;7.22;;;5.15;;
65230;SDS011;51813;40.666;16.602;2023-06-01T09:13:39;6.85;;;5.25;;
65230;SDS011;51813;40.666;16.602;2023-06-01T09:16:06;7.60;;;5.38;;
65230;SDS011;51813;40.666;16.602;2023-06-01T09:18:32;7.45;;;5.00;;
65230;SDS011;51813;40.666;16.602;2023-06-01T09:21:11;7.82;;;5.22;;
65230;SDS011;51813;40.666;16.602;2023-06-01T09:23:38;7.60;;;5.35;;
65230;SDS011;51813;40.666;16.602;2023-06-01T09:26:08;6.80;;;5.07;;
65230;SDS011;51813;40.666;16.602;2023-06-01T09:31:41;7.90;;;5.57;;
65230;SDS011;51813;40.666;16.602;2023-06-01T09:34:12;8.10;;;5.60;;
65230;SDS011;51813;40.666;16.602;2023-06-01T09:36:45;7.90;;;5.70;;
65230;SDS011;51813;40.666;16.602;2023-06-01T09:39:19;9.57;;;5.55;;
65230;SDS011;51813;40.666;16.602;2023-06-01T09:46:57;8.57;;;5.13;;
65230;SDS011;51813;40.666;16.602;2023-06-01T09:54:28;7.65;;;5.25;;
65230;SDS011;51813;40.666;16.602;2023-06-01T09:56:56;9.20;;;5.32;;
65230;SDS011;51813;40.666;16.602;2023-06-01T09:59:23;7.38;;;5.28;;
65230;SDS011;51813;40.666;16.602;2023-06-01T10:01:53;7.18;;;4.70;;
65230;SDS011;51813;40.666;16.602;2023-06-01T10:04:20;9.38;;;5.82;;
65230;SDS011;51813;40.666;16.602;2023-06-01T10:06:54;10.45;;;5.95;;
65230;SDS011;51813;40.666;16.602;2023-06-01T10:09:21;8.80;;;5.28;;
65230;SDS011;51813;40.666;16.602;2023-06-01T10:11:50;9.50;;;5.85;;
65230;SDS011;51813;40.666;16.602;2023-06-01T10:14:18;8.73;;;5.68;;
65230;SDS011;51813;40.666;16.602;2023-06-01T10:16:48;8.53;;;5.40;;
65230;SDS011;51813;40.666;16.602;2023-06-01T10:19:16;9.30;;;5.32;;
65230;SDS011;51813;40.666;16.602;2023-06-01T10:21:42;7.70;;;5.70;;
65230;SDS011;51813;40.666;16.602;2023-06-01T10:24:14;8.68;;;5.60;;
65230;SDS011;51813;40.666;16.602;2023-06-01T10:27:05;12.20;;;5.90;;
65230;SDS011;51813;40.666;16.602;2023-06-01T10:29:31;9.98;;;5.97;;
65230;SDS011;51813;40.666;16.602;2023-06-01T10:31:58;10.05;;;5.88;;
65230;SDS011;51813;40.666;16.602;2023-06-01T10:34:37;9.38;;;5.70;;
65230;SDS011;51813;40.666;16.602;2023-06-01T10:37:10;8.07;;;5.55;;
65230;SDS011;51813;40.666;16.602;2023-06-01T10:39:37;7.28;;;5.20;;
65230;SDS011;51813;40.666;16.602;2023-06-01T10:52:25;10.18;;;5.88;;
65230;SDS011;51813;40.666;16.602;2023-06-01T10:54:52;9.43;;;6.50;;
65230;SDS011;51813;40.666;16.602;2023-06-01T11:02:48;7.88;;;5.35;;
65230;SDS011;51813;40.666;16.602;2023-06-01T11:08:07;9.80;;;5.63;;
65230;SDS011;51813;40.666;16.602;2023-06-01T11:13:18;7.53;;;5.50;;
65230;SDS011;51813;40.666;16.602;2023-06-01T11:21:10;8.75;;;5.57;;
65230;SDS011;51813;40.666;16.602;2023-06-01T11:23:41;11.82;;;5.53;;
65230;SDS011;51813;40.666;16.602;2023-06-01T11:26:07;9.27;;;5.28;;
65230;SDS011;51813;40.666;16.602;2023-06-01T11:28:33;7.50;;;5.63;;
65230;SDS011;51813;40.666;16.602;2023-06-01T11:31:01;8.10;;;5.53;;
65230;SDS011;51813;40.666;16.602;2023-06-01T11:33:28;7.72;;;5.53;;
65230;SDS011;51813;40.666;16.602;2023-06-01T11:36:01;7.97;;;5.72;;
65230;SDS011;51813;40.666;16.602;2023-06-01T11:38:40;8.20;;;5.50;;
65230;SDS011;51813;40.666;16.602;2023-06-01T11:41:08;8.48;;;5.38;;
65230;SDS011;51813;40.666;16.602;2023-06-01T11:43:34;7.50;;;5.05;;
65230;SDS011;51813;40.666;16.602;2023-06-01T11:46:07;7.70;;;5.32;;
65230;SDS011;51813;40.666;16.602;2023-06-01T11:48:35;8.75;;;6.05;;
65230;SDS011;51813;40.666;16.602;2023-06-01T11:51:01;8.32;;;5.60;;
65230;SDS011;51813;40.666;16.602;2023-06-01T11:53:29;7.63;;;5.38;;
65230;SDS011;51813;40.666;16.602;2023-06-01T11:55:56;8.15;;;5.50;;
65230;SDS011;51813;40.666;16.602;2023-06-01T11:58:23;11.32;;;5.85;;
65230;SDS011;51813;40.666;16.602;2023-06-01T12:00:50;10.35;;;6.05;;
65230;SDS011;51813;40.666;16.602;2023-06-01T12:03:17;10.30;;;5.90;;
65230;SDS011;51813;40.666;16.602;2023-06-01T12:05:43;11.57;;;5.85;;
65230;SDS011;51813;40.666;16.602;2023-06-01T12:08:13;9.07;;;5.78;;
65230;SDS011;51813;40.666;16.602;2023-06-01T12:10:40;9.73;;;5.47;;
65230;SDS011;51813;40.666;16.602;2023-06-01T12:13:09;11.70;;;5.55;;
65230;SDS011;51813;40.666;16.602;2023-06-01T12:15:36;8.77;;;5.15;;
65230;SDS011;51813;40.666;16.602;2023-06-01T12:18:02;10.00;;;5.50;;
65230;SDS011;51813;40.666;16.602;2023-06-01T12:23:15;8.10;;;5.30;;
65230;SDS011;51813;40.666;16.602;2023-06-01T12:25:56;10.05;;;5.88;;
65230;SDS011;51813;40.666;16.602;2023-06-01T12:28:24;8.88;;;5.32;;
65230;SDS011;51813;40.666;16.602;2023-06-01T12:31:08;9.07;;;5.20;;
65230;SDS011;51813;40.666;16.602;2023-06-01T12:33:35;8.80;;;5.40;;
65230;SDS011;51813;40.666;16.602;2023-06-01T12:36:02;6.57;;;4.93;;
65230;SDS011;51813;40.666;16.602;2023-06-01T12:38:36;7.22;;;5.07;;
65230;SDS011;51813;40.666;16.602;2023-06-01T12:41:14;8.13;;;5.50;;
65230;SDS011;51813;40.666;16.602;2023-06-01T12:43:46;10.82;;;5.32;;
65230;SDS011;51813;40.666;16.602;2023-06-01T12:46:18;7.95;;;5.43;;
65230;SDS011;51813;40.666;16.602;2023-06-01T12:48:45;9.27;;;5.05;;
65230;SDS011;51813;40.666;16.602;2023-06-01T12:51:11;8.48;;;5.40;;
65230;SDS011;51813;40.666;16.602;2023-06-01T12:53:38;8.35;;;5.45;;
65230;SDS011;51813;40.666;16.602;2023-06-01T12:56:05;9.55;;;5.28;;
65230;SDS011;51813;40.666;16.602;2023-06-01T12:58:31;8.10;;;5.40;;
65230;SDS011;51813;40.666;16.602;2023-06-01T13:00:57;9.60;;;5.53;;
65230;SDS011;51813;40.666;16.602;2023-06-01T13:03:23;11.80;;;5.38;;
65230;SDS011;51813;40.666;16.602;2023-06-01T13:05:49;8.95;;;5.32;;
65230;SDS011;51813;40.666;16.602;2023-06-01T13:08:16;8.52;;;5.03;;
65230;SDS011;51813;40.666;16.602;2023-06-01T13:10:42;8.00;;;5.00;;
65230;SDS011;51813;40.666;16.602;2023-06-01T13:13:08;8.07;;;5.22;;
65230;SDS011;51813;40.666;16.602;2023-06-01T13:15:35;8.10;;;5.10;;
65230;SDS011;51813;40.666;16.602;2023-06-01T13:18:08;11.32;;;6.38;;
65230;SDS011;51813;40.666;16.602;2023-06-01T13:20:34;7.40;;;5.10;;
65230;SDS011;51813;40.666;16.602;2023-06-01T13:23:01;9.60;;;4.90;;
65230;SDS011;51813;40.666;16.602;2023-06-01T13:25:28;7.10;;;5.18;;
65230;SDS011;51813;40.666;16.602;2023-06-01T13:27:54;6.35;;;4.72;;
65230;SDS011;51813;40.666;16.602;2023-06-01T13:30:21;10.63;;;5.35;;
65230;SDS011;51813;40.666;16.602;2023-06-01T13:32:47;10.07;;;4.78;;
65230;SDS011;51813;40.666;16.602;2023-06-01T13:35:13;7.88;;;4.63;;
65230;SDS011;51813;40.666;16.602;2023-06-01T13:37:39;7.03;;;4.70;;
65230;SDS011;51813;40.666;16.602;2023-06-01T13:40:05;6.85;;;4.45;;
65230;SDS011;51813;40.666;16.602;2023-06-01T13:42:31;8.98;;;4.90;;
65230;SDS011;51813;40.666;16.602;2023-06-01T13:44:57;7.22;;;4.55;;
65230;SDS011;51813;40.666;16.602;2023-06-01T13:47:23;7.03;;;5.05;;
65230;SDS011;51813;40.666;16.602;2023-06-01T13:49:50;8.75;;;4.78;;
65230;SDS011;51813;40.666;16.602;2023-06-01T13:52:16;8.43;;;4.45;;
65230;SDS011;51813;40.666;16.602;2023-06-01T13:54:42;7.78;;;4.57;;
65230;SDS011;51813;40.666;16.602;2023-06-01T13:57:08;8.25;;;4.53;;
65230;SDS011;51813;40.666;16.602;2023-06-01T13:59:34;6.68;;;4.15;;
65230;SDS011;51813;40.666;16.602;2023-06-01T14:02:01;6.05;;;4.38;;
65230;SDS011;51813;40.666;16.602;2023-06-01T14:04:28;7.32;;;4.30;;
65230;SDS011;51813;40.666;16.602;2023-06-01T14:06:54;6.78;;;4.15;;
65230;SDS011;51813;40.666;16.602;2023-06-01T14:09:20;7.22;;;4.60;;
65230;SDS011;51813;40.666;16.602;2023-06-01T14:11:47;7.43;;;4.07;;
65230;SDS011;51813;40.666;16.602;2023-06-01T14:14:13;5.90;;;4.10;;
65230;SDS011;51813;40.666;16.602;2023-06-01T14:16:39;6.13;;;4.47;;
65230;SDS011;51813;40.666;16.602;2023-06-01T14:19:05;7.13;;;4.20;;
65230;SDS011;51813;40.666;16.602;2023-06-01T14:21:30;6.32;;;4.50;;
65230;SDS011;51813;40.666;16.602;2023-06-01T14:23:57;6.63;;;4.32;;
65230;SDS011;51813;40.666;16.602;2023-06-01T14:26:23;9.20;;;4.60;;
65230;SDS011;51813;40.666;16.602;2023-06-01T14:28:49;7.07;;;4.30;;
65230;SDS011;51813;40.666;16.602;2023-06-01T14:31:15;8.05;;;4.53;;
65230;SDS011;51813;40.666;16.602;2023-06-01T14:33:40;6.68;;;4.53;;
65230;SDS011;51813;40.666;16.602;2023-06-01T14:36:07;8.80;;;4.80;;
65230;SDS011;51813;40.666;16.602;2023-06-01T14:38:33;6.95;;;4.85;;
65230;SDS011;51813;40.666;16.602;2023-06-01T14:40:59;7.15;;;4.88;;
65230;SDS011;51813;40.666;16.602;2023-06-01T14:43:24;7.95;;;5.43;;
65230;SDS011;51813;40.666;16.602;2023-06-01T14:45:50;6.97;;;4.65;;
65230;SDS011;51813;40.666;16.602;2023-06-01T14:48:16;6.50;;;4.55;;
65230;SDS011;51813;40.666;16.602;2023-06-01T14:50:42;7.30;;;5.30;;
65230;SDS011;51813;40.666;16.602;2023-06-01T14:53:07;7.38;;;4.68;;
65230;SDS011;51813;40.666;16.602;2023-06-01T14:55:33;7.10;;;4.63;;
65230;SDS011;51813;40.666;16.602;2023-06-01T14:57:59;9.05;;;5.13;;
65230;SDS011;51813;40.666;16.602;2023-06-01T15:00:25;7.75;;;5.00;;
65230;SDS011;51813;40.666;16.602;2023-06-01T15:02:53;10.75;;;4.72;;
65230;SDS011;51813;40.666;16.602;2023-06-01T15:05:18;6.90;;;4.85;;
65230;SDS011;51813;40.666;16.602;2023-06-01T15:07:44;9.10;;;5.10;;
65230;SDS011;51813;40.666;16.602;2023-06-01T15:10:10;6.70;;;4.85;;
65230;SDS011;51813;40.666;16.602;2023-06-01T15:12:36;6.50;;;4.72;;
65230;SDS011;51813;40.666;16.602;2023-06-01T15:15:01;6.22;;;4.45;;
65230;SDS011;51813;40.666;16.602;2023-06-01T15:17:27;5.97;;;4.28;;
65230;SDS011;51813;40.666;16.602;2023-06-01T15:19:53;7.25;;;4.60;;
65230;SDS011;51813;40.666;16.602;2023-06-01T15:22:19;7.93;;;4.45;;
65230;SDS011;51813;40.666;16.602;2023-06-01T15:24:44;5.28;;;3.97;;
65230;SDS011;51813;40.666;16.602;2023-06-01T15:27:10;6.43;;;4.30;;
65230;SDS011;51813;40.666;16.602;2023-06-01T15:29:36;5.80;;;3.80;;
65230;SDS011;51813;40.666;16.602;2023-06-01T15:32:02;5.55;;;3.75;;
65230;SDS011;51813;40.666;16.602;2023-06-01T15:34:27;5.53;;;3.88;;
65230;SDS011;51813;40.666;16.602;2023-06-01T15:36:53;5.57;;;3.75;;